Time;durP1;ratioP1;P1;durP2;ratioP2;P2;SDS_P1;SDS_P2;PMS_P1;PMS_P2;Temp;Humidity;BMP_temperature;BMP_pressure;BME280_temperature;BME280_humidity;BME280_pressure;Samples;Min_cycle;Max_cycle;Signal;HPM_P1;HPM_P2
2022/03/09 00:00:50;;;;;;;4.83;4.37;;;1.90;99.20;;;;;;5051371;28;20260;-87
2022/03/09 00:03:20;;;;;;;3.77;3.47;;;2.00;97.80;;;;;;5051293;28;20208;-87
2022/03/09 00:05:49;;;;;;;5.10;4.07;;;2.00;97.80;;;;;;5051692;28;20210;-87
2022/03/09 00:08:17;;;;;;;5.67;4.53;;;2.00;97.20;;;;;;5051992;28;20217;-87
2022/03/09 00:10:47;;;;;;;5.70;4.37;;;2.00;96.80;;;;;;5051326;28;20230;-87
2022/03/09 00:13:15;;;;;;;4.73;4.03;;;1.90;96.90;;;;;;5051638;28;20206;-87
2022/03/09 00:15:44;;;;;;;4.97;4.17;;;1.90;97.30;;;;;;5051518;28;20222;-87
2022/03/09 00:18:12;;;;;;;5.93;4.70;;;1.90;97.20;;;;;;5051205;28;20198;-86
2022/03/09 00:20:42;;;;;;;4.40;4.00;;;1.80;97.50;;;;;;5051149;28;20245;-87
2022/03/09 00:23:11;;;;;;;5.43;4.87;;;1.80;98.30;;;;;;5055007;28;20236;-87
2022/03/09 00:25:39;;;;;;;4.53;4.07;;;1.80;98.00;;;;;;5054932;28;20198;-87
2022/03/09 00:28:08;;;;;;;4.30;4.00;;;1.80;98.10;;;;;;5054563;28;20209;-87
2022/03/09 00:30:36;;;;;;;4.87;4.37;;;1.80;98.50;;;;;;5054697;28;20233;-86
2022/03/09 00:33:04;;;;;;;4.77;4.37;;;1.70;99.30;;;;;;5054813;28;20209;-86
2022/03/09 00:35:33;;;;;;;4.63;4.23;;;1.80;98.70;;;;;;5054582;28;20221;-87
2022/03/09 00:38:09;;;;;;;4.37;3.97;;;1.70;98.40;;;;;;5054893;28;20205;-87
2022/03/09 00:40:37;;;;;;;4.65;4.22;;;1.70;98.90;;;;;;5054374;28;20287;-87
2022/03/09 00:43:06;;;;;;;5.50;4.83;;;1.70;99.10;;;;;;5054559;28;20206;-86
2022/03/09 00:45:36;;;;;;;10.10;5.20;;;1.70;99.10;;;;;;5054491;28;20237;-87
2022/03/09 00:48:05;;;;;;;5.37;4.83;;;1.70;99.90;;;;;;5054286;28;20273;-87
2022/03/09 00:50:36;;;;;;;8.20;5.20;;;1.70;99.90;;;;;;5054282;28;20225;-87
2022/03/09 00:53:05;;;;;;;5.23;4.70;;;1.60;99.90;;;;;;5054400;28;20202;-87
2022/03/09 00:55:35;;;;;;;6.43;5.10;;;1.60;99.90;;;;;;5054628;28;20289;-87
2022/03/09 00:58:03;;;;;;;6.13;4.63;;;1.60;99.90;;;;;;5054594;28;20267;-87
2022/03/09 01:00:31;;;;;;;7.27;5.13;;;1.60;99.90;;;;;;5054226;28;20233;-87
2022/03/09 01:03:00;;;;;;;5.33;4.80;;;1.60;99.90;;;;;;5054150;28;20201;-87
2022/03/09 01:05:29;;;;;;;5.97;4.17;;;1.70;99.90;;;;;;5054215;28;20267;-87
2022/03/09 01:07:57;;;;;;;8.03;5.23;;;1.70;99.90;;;;;;5054114;28;20202;-87
2022/03/09 01:10:26;;;;;;;6.30;4.37;;;1.70;99.90;;;;;;5054169;28;20230;-87
2022/03/09 01:12:56;;;;;;;5.37;4.87;;;1.80;99.90;;;;;;5054065;28;20213;-87
2022/03/09 01:15:25;;;;;;;8.10;5.20;;;1.80;99.90;;;;;;5054250;28;20214;-86
2022/03/09 01:17:53;;;;;;;4.63;4.23;;;1.80;99.90;;;;;;5054681;28;20210;-86
2022/03/09 01:20:22;;;;;;;5.13;4.63;;;1.80;99.90;;;;;;5055568;28;20222;-86
2022/03/09 01:22:52;;;;;;;5.03;4.53;;;1.80;99.70;;;;;;5055571;28;20240;-86
2022/03/09 01:25:20;;;;;;;4.97;4.40;;;1.80;99.70;;;;;;5055262;28;20202;-87
2022/03/09 01:27:49;;;;;;;4.83;4.43;;;1.80;99.90;;;;;;5055262;28;20241;-86
2022/03/09 01:30:19;;;;;;;5.93;5.30;;;1.70;99.90;;;;;;5053813;28;20252;-87
2022/03/09 01:32:49;;;;;;;7.73;4.87;;;1.80;99.90;;;;;;5053802;28;20236;-86
2022/03/09 01:35:18;;;;;;;4.90;4.40;;;1.80;99.90;;;;;;5054083;28;20291;-86
2022/03/09 01:37:46;;;;;;;5.50;4.97;;;1.80;99.90;;;;;;5053829;28;20229;-86
2022/03/09 01:40:15;;;;;;;4.60;4.23;;;1.80;99.90;;;;;;5055596;28;20225;-86
2022/03/09 01:42:44;;;;;;;5.20;4.70;;;1.80;99.90;;;;;;5054839;28;20205;-86
2022/03/09 01:45:15;;;;;;;5.30;4.80;;;1.80;99.90;;;;;;5054675;28;20217;-87
2022/03/09 01:47:45;;;;;;;5.23;4.70;;;1.80;99.90;;;;;;5055485;28;20214;-87
2022/03/09 01:50:14;;;;;;;5.10;4.60;;;1.80;99.90;;;;;;5053989;28;20226;-87
2022/03/09 01:52:43;;;;;;;4.83;4.47;;;1.80;99.90;;;;;;5053702;28;20481;-87
2022/03/09 01:55:13;;;;;;;5.00;4.60;;;1.80;99.90;;;;;;5053611;28;20201;-87
2022/03/09 01:57:41;;;;;;;7.43;5.03;;;1.80;99.90;;;;;;5053258;28;20233;-86
2022/03/09 02:00:11;;;;;;;10.07;5.70;;;1.80;99.70;;;;;;5053576;28;20287;-87
2022/03/09 02:02:39;;;;;;;10.93;5.30;;;1.80;99.90;;;;;;5053195;28;20202;-87
2022/03/09 02:05:10;;;;;;;6.23;5.37;;;1.80;99.90;;;;;;5053685;28;20269;-87
2022/03/09 02:10:25;;;;;;;5.17;4.60;;;1.70;99.90;;;;;;5052973;28;20305;-87
2022/03/09 02:12:54;;;;;;;7.27;5.37;;;1.70;99.90;;;;;;5052885;28;20232;-87
2022/03/09 02:15:23;;;;;;;5.73;4.87;;;1.70;99.90;;;;;;5053044;28;20210;-86
2022/03/09 02:17:52;;;;;;;4.77;4.37;;;1.70;99.90;;;;;;5053176;28;20255;-88
2022/03/09 02:20:22;;;;;;;6.27;5.10;;;1.70;99.90;;;;;;5053200;28;20229;-87
2022/03/09 02:22:53;;;;;;;4.97;4.57;;;1.70;99.90;;;;;;5052840;28;20221;-87
2022/03/09 02:25:22;;;;;;;7.83;5.50;;;1.60;99.90;;;;;;5052942;28;20228;-87
2022/03/09 02:27:50;;;;;;;10.13;4.77;;;1.70;99.90;;;;;;5053191;28;20255;-87
2022/03/09 02:30:20;;;;;;;5.87;5.00;;;1.60;99.90;;;;;;5052706;28;20229;-87
2022/03/09 02:33:13;;;;;;;5.67;5.07;;;1.60;99.90;;;;;;5053559;28;20201;-87
2022/03/09 02:35:59;;;;;;;5.97;5.37;;;1.60;99.90;;;;;;5053104;28;20211;-86
2022/03/09 02:38:29;;;;;;;9.97;5.77;;;1.60;99.90;;;;;;5053076;28;20293;-87
2022/03/09 02:40:58;;;;;;;5.23;4.73;;;1.50;99.90;;;;;;5052753;28;20248;-87
2022/03/09 02:43:27;;;;;;;6.67;5.63;;;1.50;99.90;;;;;;5051988;28;20201;-87
2022/03/09 02:45:55;;;;;;;5.20;4.77;;;1.50;99.90;;;;;;5052807;28;20241;-87
2022/03/09 02:48:24;;;;;;;8.73;5.30;;;1.50;99.90;;;;;;5052989;28;20229;-87
2022/03/09 02:50:52;;;;;;;6.07;5.47;;;1.50;99.90;;;;;;5052493;28;20241;-87
2022/03/09 02:53:20;;;;;;;7.53;4.77;;;1.50;99.90;;;;;;5052646;28;20229;-87
2022/03/09 02:55:50;;;;;;;4.93;4.43;;;1.50;99.90;;;;;;5052822;28;20226;-87
2022/03/09 02:58:19;;;;;;;5.67;5.00;;;1.50;99.90;;;;;;5052328;28;20209;-86
2022/03/09 03:00:47;;;;;;;6.30;5.07;;;1.50;99.90;;;;;;5052167;28;20250;-87
2022/03/09 03:03:17;;;;;;;7.60;4.93;;;1.50;99.90;;;;;;5052734;28;20208;-86
2022/03/09 03:05:45;;;;;;;8.00;5.67;;;1.50;99.90;;;;;;5052354;28;20216;-86
2022/03/09 03:08:14;;;;;;;4.73;4.33;;;1.50;99.90;;;;;;5052344;28;20229;-87
2022/03/09 03:10:45;;;;;;;7.33;5.03;;;1.50;99.90;;;;;;5052085;28;20225;-86
2022/03/09 03:13:15;;;;;;;8.50;5.83;;;1.50;99.90;;;;;;5052509;28;20233;-87
2022/03/09 03:15:46;;;;;;;5.57;5.07;;;1.50;99.90;;;;;;5052633;28;20275;-87
2022/03/09 03:18:14;;;;;;;10.90;5.37;;;1.50;99.90;;;;;;5051960;28;20302;-86
2022/03/09 03:20:43;;;;;;;5.97;5.03;;;1.50;99.90;;;;;;5051615;28;20229;-86
2022/03/09 03:23:11;;;;;;;6.50;5.63;;;1.50;99.90;;;;;;5052153;28;20202;-86
2022/03/09 03:25:40;;;;;;;12.70;5.53;;;1.50;99.90;;;;;;5052101;28;20210;-86
2022/03/09 03:28:08;;;;;;;6.03;5.43;;;1.40;99.90;;;;;;5052240;28;20198;-86
2022/03/09 03:30:38;;;;;;;6.87;5.90;;;1.40;99.90;;;;;;5051881;28;20226;-87
2022/03/09 03:33:06;;;;;;;7.43;5.73;;;1.40;99.90;;;;;;5052176;28;20197;-87
2022/03/09 03:35:35;;;;;;;5.50;5.00;;;1.40;99.90;;;;;;5051772;28;20225;-87
2022/03/09 03:38:03;;;;;;;9.30;5.67;;;1.40;99.90;;;;;;5052115;28;20235;-87
2022/03/09 03:40:32;;;;;;;6.23;5.33;;;1.30;99.90;;;;;;5052365;28;20222;-87
2022/03/09 03:43:01;;;;;;;5.63;5.03;;;1.40;99.90;;;;;;5051840;28;20217;-87
2022/03/09 03:45:29;;;;;;;5.70;5.23;;;1.30;99.90;;;;;;5052294;28;20218;-85
2022/03/09 03:47:59;;;;;;;5.30;4.80;;;1.30;99.90;;;;;;5052042;28;20206;-86
2022/03/09 03:50:27;;;;;;;5.07;4.67;;;1.30;99.90;;;;;;5051865;28;20252;-86
2022/03/09 03:52:57;;;;;;;6.60;5.07;;;1.30;99.90;;;;;;5052143;28;20233;-86
2022/03/09 03:55:25;;;;;;;6.03;5.43;;;1.30;99.90;;;;;;5053388;28;20271;-87
2022/03/09 03:57:54;;;;;;;7.70;5.90;;;1.20;99.90;;;;;;5055371;28;20225;-87
2022/03/09 04:00:23;;;;;;;6.40;4.77;;;1.20;99.90;;;;;;5055823;28;20244;-87
2022/03/09 04:02:52;;;;;;;7.43;5.93;;;1.20;99.90;;;;;;5055953;28;20267;-86
2022/03/09 04:05:22;;;;;;;5.83;5.10;;;1.20;99.90;;;;;;5056192;28;20271;-87
2022/03/09 04:07:51;;;;;;;5.13;4.63;;;1.20;99.90;;;;;;5055576;28;20229;-86
2022/03/09 04:10:19;;;;;;;5.43;4.93;;;1.20;99.90;;;;;;5055169;28;20242;-86
2022/03/09 04:12:48;;;;;;;5.10;4.60;;;1.20;99.90;;;;;;5055443;28;20206;-87
2022/03/09 04:15:16;;;;;;;8.73;5.23;;;1.30;99.90;;;;;;5055744;28;20209;-86
2022/03/09 04:17:47;;;;;;;5.83;5.33;;;1.20;99.90;;;;;;5055692;28;20222;-87
2022/03/09 04:20:16;;;;;;;5.20;4.70;;;1.20;99.90;;;;;;5055545;28;20229;-86
2022/03/09 04:22:46;;;;;;;7.50;5.63;;;1.20;99.90;;;;;;5055302;28;20201;-87
2022/03/09 04:25:15;;;;;;;7.43;6.03;;;1.10;99.90;;;;;;5055546;28;20354;-86
2022/03/09 04:27:44;;;;;;;4.37;4.07;;;1.10;99.90;;;;;;5055075;28;20223;-86
2022/03/09 04:30:12;;;;;;;8.13;5.47;;;1.00;99.90;;;;;;5055334;28;20230;-86
2022/03/09 04:32:41;;;;;;;9.17;6.20;;;1.10;99.90;;;;;;5055079;28;20209;-86
2022/03/09 04:35:10;;;;;;;5.07;4.63;;;1.10;99.90;;;;;;5055295;28;20206;-87
2022/03/09 04:37:38;;;;;;;5.10;4.60;;;1.10;99.90;;;;;;5054933;28;20232;-87
2022/03/09 04:40:13;;;;;;;7.23;6.53;;;1.20;99.90;;;;;;5054828;28;20240;-86
2022/03/09 04:42:42;;;;;;;8.40;5.97;;;1.20;99.90;;;;;;5054698;28;20205;-87
2022/03/09 04:45:11;;;;;;;5.77;5.17;;;1.20;99.90;;;;;;5055323;28;20229;-86
2022/03/09 04:47:40;;;;;;;6.57;5.87;;;1.20;99.90;;;;;;5055050;28;20225;-86
2022/03/09 04:50:09;;;;;;;5.27;4.77;;;1.20;99.90;;;;;;5054752;28;20225;-86
2022/03/09 04:52:37;;;;;;;5.70;5.03;;;1.20;99.90;;;;;;5054427;28;20218;-87
2022/03/09 04:55:07;;;;;;;5.23;4.73;;;1.30;99.90;;;;;;5054872;28;20289;-86
2022/03/09 04:57:38;;;;;;;8.27;5.63;;;1.20;99.90;;;;;;5054889;28;20222;-86
2022/03/09 05:00:08;;;;;;;6.60;5.67;;;1.20;99.90;;;;;;5055106;28;20233;-87
2022/03/09 05:02:36;;;;;;;5.63;5.07;;;1.20;99.90;;;;;;5054394;28;20224;-86
2022/03/09 05:05:06;;;;;;;6.73;6.13;;;1.30;99.90;;;;;;5054463;28;20252;-87
2022/03/09 05:07:34;;;;;;;9.27;5.60;;;1.30;99.90;;;;;;5053730;28;20252;-87
2022/03/09 05:10:03;;;;;;;5.40;4.90;;;1.30;99.90;;;;;;5054646;28;20276;-87
2022/03/09 05:12:34;;;;;;;5.67;5.17;;;1.30;99.90;;;;;;5054629;28;20210;-86
2022/03/09 05:15:04;;;;;;;5.83;5.33;;;1.30;99.90;;;;;;5054275;28;20233;-87
2022/03/09 05:17:39;;;;;;;6.07;5.47;;;1.30;99.90;;;;;;5054420;28;20313;-86
2022/03/09 05:20:09;;;;;;;6.37;5.23;;;1.30;99.90;;;;;;5054422;28;20253;-87
2022/03/09 05:22:37;;;;;;;6.70;6.07;;;1.30;99.90;;;;;;5055079;28;20236;-86
2022/03/09 05:25:07;;;;;;;6.40;5.77;;;1.30;99.90;;;;;;5054927;28;20198;-87
2022/03/09 05:27:38;;;;;;;8.03;6.30;;;1.30;99.90;;;;;;5056113;28;20205;-87
2022/03/09 05:30:09;;;;;;;6.10;5.33;;;1.30;99.90;;;;;;5053941;28;20267;-86
2022/03/09 05:32:39;;;;;;;5.77;5.07;;;1.30;99.90;;;;;;5054017;28;20293;-87
2022/03/09 05:35:09;;;;;;;7.03;6.33;;;1.30;99.90;;;;;;5054226;28;20414;-86
2022/03/09 05:37:43;;;;;;;6.47;5.73;;;1.40;99.90;;;;;;5054268;28;20241;-86
2022/03/09 05:40:13;;;;;;;7.25;6.50;;;1.40;99.90;;;;;;5054466;28;20264;-86
2022/03/09 05:42:43;;;;;;;8.10;5.60;;;1.50;99.90;;;;;;5054532;28;20206;-87
2022/03/09 05:45:19;;;;;;;6.20;5.50;;;1.50;99.90;;;;;;5054741;28;20301;-87
2022/03/09 05:47:52;;;;;;;6.43;5.67;;;1.60;99.90;;;;;;5055632;28;20206;-87
2022/03/09 05:50:21;;;;;;;6.20;5.60;;;1.60;99.90;;;;;;5053873;28;20225;-86
2022/03/09 05:52:49;;;;;;;5.30;4.80;;;1.60;99.90;;;;;;5053735;28;20210;-87
2022/03/09 05:55:19;;;;;;;6.87;5.23;;;1.70;99.90;;;;;;5053537;28;20218;-86
2022/03/09 05:57:48;;;;;;;5.67;5.07;;;1.70;99.90;;;;;;5053487;28;20222;-86
2022/03/09 06:00:16;;;;;;;6.37;5.67;;;1.70;99.90;;;;;;5053570;28;20222;-86
2022/03/09 06:02:48;;;;;;;5.80;5.20;;;1.70;99.90;;;;;;5053470;28;20205;-86
2022/03/09 06:05:20;;;;;;;6.47;5.87;;;1.70;99.90;;;;;;5053514;28;20220;-86
2022/03/09 06:07:49;;;;;;;5.87;5.30;;;1.80;99.90;;;;;;5052996;28;20205;-87
2022/03/09 06:10:17;;;;;;;6.17;5.60;;;1.90;99.90;;;;;;5053111;28;20275;-87
2022/03/09 06:12:46;;;;;;;6.17;5.50;;;1.90;99.90;;;;;;5053312;28;20206;-87
2022/03/09 06:15:14;;;;;;;6.97;5.43;;;1.90;99.90;;;;;;5053885;28;20205;-87
2022/03/09 06:17:48;;;;;;;8.98;6.13;;;2.10;99.90;;;;;;5053440;28;20209;-86
2022/03/09 06:20:18;;;;;;;6.90;6.18;;;2.10;99.90;;;;;;5052362;28;20241;-87
2022/03/09 06:22:51;;;;;;;13.45;6.90;;;2.20;99.90;;;;;;5053341;28;20215;-86
2022/03/09 06:25:19;;;;;;;10.25;6.75;;;2.40;99.90;;;;;;5052974;28;20209;-87
2022/03/09 06:27:50;;;;;;;8.40;6.23;;;2.50;99.90;;;;;;5053042;28;20256;-86
2022/03/09 06:30:26;;;;;;;8.45;5.70;;;2.50;99.90;;;;;;5052758;28;20244;-86
2022/03/09 06:32:57;;;;;;;7.03;6.18;;;2.70;99.90;;;;;;5053324;28;20191;-87
2022/03/09 06:35:26;;;;;;;7.32;5.72;;;2.80;99.90;;;;;;5053147;28;20205;-87
2022/03/09 06:37:57;;;;;;;7.13;5.33;;;2.90;99.90;;;;;;5052751;28;20286;-86
2022/03/09 06:40:26;;;;;;;9.32;4.68;;;3.00;99.90;;;;;;5052467;28;20217;-87
2022/03/09 06:42:54;;;;;;;6.00;5.38;;;3.10;99.70;;;;;;5052919;28;20210;-86
2022/03/09 06:45:26;;;;;;;5.90;4.60;;;3.10;99.50;;;;;;5052778;28;20221;-86
2022/03/09 06:47:54;;;;;;;8.07;5.88;;;3.20;99.00;;;;;;5052778;28;20209;-86
2022/03/09 06:50:24;;;;;;;5.45;4.95;;;3.30;99.30;;;;;;5052333;28;20229;-86
2022/03/09 06:52:53;;;;;;;9.98;5.57;;;3.40;99.40;;;;;;5052634;28;20263;-86
2022/03/09 06:55:22;;;;;;;5.93;4.80;;;3.50;98.90;;;;;;5052463;28;20205;-86
2022/03/09 06:57:51;;;;;;;6.65;5.80;;;3.60;98.00;;;;;;5053906;28;20201;-86
2022/03/09 07:00:20;;;;;;;6.25;5.65;;;3.70;98.20;;;;;;5052755;28;20238;-87
2022/03/09 07:02:48;;;;;;;5.35;4.85;;;3.80;98.20;;;;;;5052664;28;20205;-86
2022/03/09 07:05:17;;;;;;;11.63;5.45;;;3.90;97.50;;;;;;5052456;28;20235;-87
2022/03/09 07:07:47;;;;;;;5.72;4.97;;;4.00;96.80;;;;;;5052300;28;20206;-86
2022/03/09 07:10:16;;;;;;;8.27;5.68;;;4.10;96.70;;;;;;5052757;28;20217;-87
2022/03/09 07:12:47;;;;;;;4.90;4.45;;;4.20;96.50;;;;;;5052906;28;20205;-85
2022/03/09 07:15:16;;;;;;;5.65;4.68;;;4.20;96.20;;;;;;5052790;28;20209;-86
2022/03/09 07:17:46;;;;;;;5.90;4.93;;;4.30;95.50;;;;;;5052599;28;20205;-87
2022/03/09 07:20:15;;;;;;;5.47;4.97;;;4.50;95.70;;;;;;5052517;28;20253;-87
2022/03/09 07:22:45;;;;;;;6.13;4.93;;;4.60;95.90;;;;;;5052801;28;20205;-87
2022/03/09 07:25:15;;;;;;;8.40;5.60;;;4.80;96.40;;;;;;5052789;28;20228;-86
2022/03/09 07:27:44;;;;;;;6.22;5.00;;;4.90;95.40;;;;;;5052196;28;20209;-86
2022/03/09 07:30:13;;;;;;;6.82;6.13;;;4.80;94.20;;;;;;5053664;28;20221;-86
2022/03/09 07:32:41;;;;;;;8.55;5.30;;;4.70;93.60;;;;;;5056427;28;20224;-86
2022/03/09 07:35:20;;;;;;;5.80;5.10;;;4.80;95.00;;;;;;5056399;28;20209;-87
2022/03/09 07:37:50;;;;;;;14.75;5.95;;;4.90;95.10;;;;;;5056650;28;20205;-86
2022/03/09 07:40:20;;;;;;;7.45;5.57;;;4.90;94.40;;;;;;5055638;28;20309;-87
2022/03/09 07:42:49;;;;;;;5.75;5.15;;;4.80;93.70;;;;;;5056258;28;20204;-86
2022/03/09 07:45:17;;;;;;;6.70;5.30;;;4.80;95.60;;;;;;5056106;28;20213;-86
2022/03/09 07:47:46;;;;;;;6.85;5.80;;;4.80;94.00;;;;;;5055879;28;20214;-86
2022/03/09 07:50:14;;;;;;;6.35;5.25;;;4.80;94.20;;;;;;5055879;28;20221;-86
2022/03/09 07:52:42;;;;;;;8.32;5.20;;;4.90;94.50;;;;;;5055690;28;20262;-86
2022/03/09 07:55:11;;;;;;;6.55;5.47;;;5.00;94.50;;;;;;5055872;28;20210;-87
2022/03/09 07:57:41;;;;;;;9.07;6.20;;;5.10;94.30;;;;;;5055840;28;20213;-86
2022/03/09 08:00:10;;;;;;;6.20;5.28;;;5.10;93.50;;;;;;5055391;28;20226;-86
2022/03/09 08:02:39;;;;;;;6.07;5.50;;;5.20;94.20;;;;;;5055959;28;20229;-86
2022/03/09 08:05:08;;;;;;;8.30;5.50;;;5.40;93.80;;;;;;5056166;28;20206;-86
2022/03/09 08:07:36;;;;;;;5.93;5.32;;;5.50;94.00;;;;;;5055377;28;20240;-87
2022/03/09 08:10:09;;;;;;;6.13;5.53;;;5.60;93.70;;;;;;5055589;28;20225;-87
2022/03/09 08:12:39;;;;;;;6.60;5.32;;;5.80;94.50;;;;;;5055653;28;20210;-87
2022/03/09 08:15:12;;;;;;;5.78;5.07;;;5.90;92.70;;;;;;5055952;28;20214;-87
2022/03/09 08:17:40;;;;;;;6.43;5.70;;;6.00;92.30;;;;;;5055709;28;20229;-87
2022/03/09 08:20:13;;;;;;;5.45;4.80;;;6.10;92.30;;;;;;5055290;28;20230;-87
2022/03/09 08:22:42;;;;;;;6.90;5.95;;;6.10;91.90;;;;;;5055370;28;20210;-86
2022/03/09 08:25:30;;;;;;;12.35;5.05;;;6.00;91.80;;;;;;5055814;28;20267;-87
2022/03/09 08:28:00;;;;;;;9.32;5.70;;;6.00;91.60;;;;;;5055742;28;20210;-87
2022/03/09 08:30:30;;;;;;;8.93;6.10;;;6.00;92.30;;;;;;5055538;28;20225;-87
2022/03/09 08:32:59;;;;;;;7.15;6.38;;;6.10;91.70;;;;;;5055579;28;20217;-86
2022/03/09 08:35:32;;;;;;;8.07;6.68;;;6.20;92.50;;;;;;5055333;28;20262;-87
2022/03/09 08:38:01;;;;;;;5.95;5.18;;;6.40;91.40;;;;;;5055502;28;20206;-88
2022/03/09 08:40:30;;;;;;;8.57;5.80;;;6.70;91.10;;;;;;5054947;28;20292;-87
2022/03/09 08:42:58;;;;;;;5.75;5.20;;;7.00;90.50;;;;;;5053945;28;20217;-87
2022/03/09 08:45:27;;;;;;;7.72;5.63;;;7.20;90.20;;;;;;5054846;28;20267;-87
2022/03/09 08:47:57;;;;;;;6.72;5.88;;;7.30;88.20;;;;;;5054902;28;20206;-87
2022/03/09 08:50:25;;;;;;;8.20;6.15;;;7.30;88.40;;;;;;5054692;28;20225;-87
2022/03/09 08:53:05;;;;;;;11.25;6.05;;;7.40;87.70;;;;;;5055384;28;20243;-87
2022/03/09 08:55:34;;;;;;;7.45;6.68;;;7.50;87.40;;;;;;5054707;28;20205;-88
2022/03/09 08:58:03;;;;;;;13.68;8.43;;;7.80;87.20;;;;;;5054752;28;20198;-88
2022/03/09 09:00:31;;;;;;;12.40;8.50;;;7.80;87.50;;;;;;5054682;28;20230;-87
2022/03/09 09:03:01;;;;;;;13.73;7.22;;;7.70;86.20;;;;;;5055177;28;20280;-88
2022/03/09 09:05:30;;;;;;;8.45;6.38;;;7.80;86.70;;;;;;5054821;28;20225;-88
2022/03/09 09:07:59;;;;;;;6.88;4.70;;;8.00;87.20;;;;;;5054736;28;20264;-87
2022/03/09 09:10:34;;;;;;;7.93;4.88;;;8.10;84.80;;;;;;5054555;28;20228;-87
2022/03/09 09:13:03;;;;;;;6.88;5.22;;;8.40;84.30;;;;;;5054425;28;20204;-88
2022/03/09 09:15:31;;;;;;;5.72;5.13;;;8.70;84.10;;;;;;5054823;28;20205;-87
2022/03/09 09:18:03;;;;;;;5.10;4.65;;;9.60;83.10;;;;;;5055065;28;20201;-88
2022/03/09 09:20:48;;;;;;;5.28;4.78;;;9.80;78.70;;;;;;5054117;28;20249;-87
2022/03/09 09:23:17;;;;;;;8.57;5.50;;;9.60;79.30;;;;;;5054520;28;20202;-88
2022/03/09 09:25:46;;;;;;;5.72;4.43;;;9.90;78.30;;;;;;5054372;28;20267;-87
2022/03/09 09:28:15;;;;;;;6.90;5.40;;;10.20;76.30;;;;;;5054507;28;20255;-87
2022/03/09 09:30:46;;;;;;;5.75;5.00;;;10.30;74.70;;;;;;5054390;28;20224;-88
2022/03/09 09:33:18;;;;;;;10.38;5.45;;;10.10;74.00;;;;;;5054789;28;20208;-87
2022/03/09 09:35:49;;;;;;;5.47;4.97;;;9.90;75.10;;;;;;5054380;28;20202;-88
2022/03/09 09:38:17;;;;;;;4.68;4.25;;;9.90;76.10;;;;;;5054261;28;20216;-86
2022/03/09 09:40:51;;;;;;;7.53;5.13;;;9.80;75.70;;;;;;5056792;28;20265;-87
2022/03/09 09:43:19;;;;;;;7.43;5.43;;;9.80;75.90;;;;;;5055177;28;20263;-88
2022/03/09 09:45:51;;;;;;;4.35;3.97;;;9.70;76.70;;;;;;5054558;28;20223;-87
2022/03/09 09:48:21;;;;;;;8.95;4.88;;;9.50;76.50;;;;;;5054201;28;20275;-88
2022/03/09 09:51:10;;;;;;;8.48;5.57;;;9.30;76.60;;;;;;5053494;28;20290;-87
2022/03/09 09:53:42;;;;;;;6.40;5.45;;;9.20;77.10;;;;;;5053824;28;20206;-87
2022/03/09 09:56:13;;;;;;;5.55;4.30;;;9.30;79.80;;;;;;5053754;28;20198;-87
2022/03/09 09:58:45;;;;;;;4.75;4.25;;;9.40;77.20;;;;;;5053964;28;20267;-87
2022/03/09 10:01:13;;;;;;;4.50;3.97;;;9.20;77.60;;;;;;5058512;28;20225;-87
2022/03/09 10:03:43;;;;;;;5.43;4.00;;;9.30;78.00;;;;;;5054468;28;20209;-88
2022/03/09 10:06:12;;;;;;;5.50;4.93;;;9.30;78.20;;;;;;5053789;28;20212;-87
2022/03/09 10:08:40;;;;;;;6.45;4.28;;;9.30;77.80;;;;;;5053851;28;20228;-87
2022/03/09 10:11:08;;;;;;;4.80;4.28;;;9.30;77.40;;;;;;5053378;28;20272;-86
2022/03/09 10:13:39;;;;;;;3.65;3.33;;;9.30;78.10;;;;;;5053379;28;20206;-87
2022/03/09 10:16:10;;;;;;;4.38;3.85;;;9.30;79.10;;;;;;5053819;28;20233;-87
2022/03/09 10:18:40;;;;;;;3.20;2.90;;;9.50;79.00;;;;;;5053511;28;20293;-88
2022/03/09 10:21:15;;;;;;;4.35;3.95;;;9.70;78.50;;;;;;5053157;28;20281;-88
2022/03/09 10:24:01;;;;;;;5.10;4.43;;;9.90;77.50;;;;;;5053393;28;20217;-88
2022/03/09 10:26:44;;;;;;;5.65;3.88;;;10.00;77.00;;;;;;5053160;28;20212;-88
2022/03/09 10:29:15;;;;;;;4.38;3.97;;;10.20;76.90;;;;;;5053427;28;20235;-87
2022/03/09 10:31:45;;;;;;;4.90;3.97;;;10.20;76.70;;;;;;5052986;28;20263;-88
2022/03/09 10:34:22;;;;;;;5.28;4.18;;;10.00;76.10;;;;;;5052949;28;20210;-87
2022/03/09 10:36:57;;;;;;;4.43;4.03;;;9.80;77.00;;;;;;5053495;28;20271;-87
2022/03/09 10:39:31;;;;;;;5.38;4.15;;;9.60;77.50;;;;;;5053044;28;20201;-87
2022/03/09 10:42:00;;;;;;;4.45;4.05;;;9.60;77.50;;;;;;5052863;28;20229;-88
2022/03/09 10:44:44;;;;;;;4.75;4.10;;;9.50;77.90;;;;;;5053041;28;20266;-87
2022/03/09 10:47:28;;;;;;;4.07;3.78;;;9.60;77.70;;;;;;5053473;28;20229;-88
2022/03/09 10:50:13;;;;;;;4.32;3.92;;;9.80;77.50;;;;;;5053018;28;20225;-88
2022/03/09 10:52:51;;;;;;;4.15;3.38;;;10.10;77.50;;;;;;5052678;28;20210;-89
2022/03/09 10:55:28;;;;;;;5.07;3.40;;;10.40;77.30;;;;;;5052959;28;20264;-89
2022/03/09 10:58:11;;;;;;;3.85;3.53;;;10.70;77.40;;;;;;5052865;28;20213;-88
2022/03/09 11:00:44;;;;;;;5.45;4.20;;;10.80;77.40;;;;;;5052292;28;20237;-88
2022/03/09 11:03:14;;;;;;;6.28;4.05;;;10.80;76.00;;;;;;5052864;28;20198;-88
2022/03/09 11:05:52;;;;;;;4.15;3.75;;;11.20;75.80;;;;;;5051667;28;20206;-87
2022/03/09 11:08:23;;;;;;;4.57;3.92;;;11.80;75.60;;;;;;5052304;28;20206;-88
2022/03/09 11:10:52;;;;;;;6.00;4.60;;;12.40;73.00;;;;;;5052503;28;20222;-89
2022/03/09 11:13:22;;;;;;;5.90;4.05;;;13.20;72.30;;;;;;5052317;28;20225;-88
2022/03/09 11:15:51;;;;;;;6.28;4.65;;;13.60;69.70;;;;;;5052160;28;20206;-88
2022/03/09 11:18:21;;;;;;;6.53;4.45;;;14.20;68.70;;;;;;5052312;28;20286;-88
2022/03/09 11:20:52;;;;;;;4.40;3.60;;;14.30;67.30;;;;;;5051867;28;20222;-88
2022/03/09 11:23:23;;;;;;;4.20;3.55;;;14.20;67.90;;;;;;5052431;28;20205;-88
2022/03/09 11:25:54;;;;;;;3.88;3.58;;;14.60;66.80;;;;;;5052369;28;20210;-88
2022/03/09 11:28:25;;;;;;;7.68;3.28;;;14.20;65.50;;;;;;5052196;28;20209;-88
2022/03/09 11:30:58;;;;;;;4.05;3.40;;;14.10;66.40;;;;;;5052156;28;20282;-88
2022/03/09 11:33:40;;;;;;;3.38;3.10;;;14.30;67.80;;;;;;5052280;28;20205;-88
2022/03/09 11:36:33;;;;;;;5.85;4.35;;;14.60;66.20;;;;;;5052001;28;20202;-89
2022/03/09 11:39:24;;;;;;;3.85;3.55;;;15.40;64.50;;;;;;5044176;28;20198;-88
2022/03/09 11:42:28;;;;;;;3.88;3.40;;;16.00;62.40;;;;;;5052006;28;20229;-88
2022/03/09 11:45:20;;;;;;;10.88;3.85;;;16.50;62.20;;;;;;5050543;28;20281;-87
2022/03/09 11:48:00;;;;;;;4.60;3.35;;;17.00;60.00;;;;;;5051961;28;20259;-88
2022/03/09 11:50:30;;;;;;;3.72;3.38;;;17.30;60.40;;;;;;5051847;28;20226;-89
2022/03/09 11:53:01;;;;;;;3.92;3.55;;;17.20;59.20;;;;;;5052177;28;20218;-88
2022/03/09 11:55:32;;;;;;;3.83;3.22;;;17.60;57.40;;;;;;5052682;28;20206;-90
2022/03/09 11:58:08;;;;;;;5.15;4.75;;;16.90;57.60;;;;;;5051995;28;20202;-88
2022/03/09 12:00:37;;;;;;;3.20;2.97;;;16.70;58.00;;;;;;5051970;28;20233;-89
2022/03/09 12:03:06;;;;;;;4.97;3.97;;;16.70;57.60;;;;;;5052021;28;20206;-87
2022/03/09 12:05:40;;;;;;;4.57;4.15;;;16.60;57.00;;;;;;5052015;28;20206;-87
2022/03/09 12:08:11;;;;;;;4.65;3.90;;;16.60;57.40;;;;;;5051888;28;20209;-88
2022/03/09 12:10:49;;;;;;;7.80;3.90;;;16.70;56.00;;;;;;5051140;28;20226;-88
2022/03/09 12:13:31;;;;;;;4.28;3.88;;;16.70;56.90;;;;;;5052188;28;20206;-87
2022/03/09 12:16:15;;;;;;;12.50;4.32;;;16.90;56.30;;;;;;5052577;28;20214;-88
2022/03/09 12:18:53;;;;;;;4.45;4.00;;;16.90;57.00;;;;;;5055497;28;20220;-88
2022/03/09 12:22:14;;;;;;;5.25;4.22;;;17.20;55.80;;;;;;5055280;28;20287;-88
2022/03/09 12:24:43;;;;;;;4.97;4.53;;;17.50;54.90;;;;;;5055235;28;20245;-87
2022/03/09 12:27:27;;;;;;;4.18;3.88;;;17.50;54.60;;;;;;5055585;28;20202;-88
2022/03/09 12:29:56;;;;;;;6.43;3.97;;;17.20;55.00;;;;;;5055235;28;20253;-88
2022/03/09 12:32:24;;;;;;;4.72;4.28;;;16.80;54.80;;;;;;5055289;28;20209;-88
2022/03/09 12:34:53;;;;;;;5.75;3.90;;;17.00;54.80;;;;;;5055024;28;20224;-88
2022/03/09 12:37:26;;;;;;;4.47;3.78;;;16.90;54.10;;;;;;5055204;28;20235;-88
2022/03/09 12:39:57;;;;;;;4.68;4.28;;;16.70;55.10;;;;;;5055187;28;20238;-88
2022/03/09 12:42:31;;;;;;;3.50;3.30;;;16.50;54.50;;;;;;5054785;28;20225;-87
2022/03/09 12:45:01;;;;;;;3.83;3.53;;;16.30;55.10;;;;;;5055284;28;20237;-87
2022/03/09 12:47:34;;;;;;;4.47;4.07;;;16.40;56.10;;;;;;5054898;28;20210;-87
2022/03/09 12:50:04;;;;;;;4.88;3.70;;;16.60;54.80;;;;;;5054940;28;20226;-87
2022/03/09 12:52:44;;;;;;;3.70;3.40;;;17.00;55.00;;;;;;5054774;28;20202;-88
2022/03/09 12:55:20;;;;;;;3.40;3.10;;;16.70;53.80;;;;;;5054864;28;20223;-89
2022/03/09 12:57:58;;;;;;;4.05;3.58;;;16.20;54.60;;;;;;5054857;28;20205;-89
2022/03/09 13:00:29;;;;;;;4.32;3.45;;;16.00;55.10;;;;;;5054355;28;20264;-88
2022/03/09 13:03:00;;;;;;;5.03;3.90;;;16.30;55.30;;;;;;5054910;28;20233;-89
2022/03/09 13:05:33;;;;;;;5.05;3.50;;;16.60;54.40;;;;;;5054704;28;20264;-87
2022/03/09 13:08:03;;;;;;;4.35;3.58;;;16.80;55.50;;;;;;5054528;28;20340;-89
2022/03/09 13:10:35;;;;;;;4.57;3.53;;;17.20;54.20;;;;;;5054286;28;20313;-89
2022/03/09 13:13:04;;;;;;;5.68;3.90;;;17.30;54.20;;;;;;5054507;28;20292;-88
2022/03/09 13:15:38;;;;;;;3.30;3.00;;;16.40;54.10;;;;;;5054592;28;20210;-88
2022/03/09 13:18:07;;;;;;;3.08;2.78;;;16.70;55.30;;;;;;5054460;28;20274;-89